»·PEaware :: CREEP24 KEND-KEND

CREEP24 :: KEND-KEND

FLIGHT INFORMATION

Flight Status: Arrived
Operator: Unknown
More flights by this operator :: More flights under this callsign
Pilot: A. L. (21540)
Aircraft: BEECH AIRCRAFT T-6A TEXAN
(TEX2)
More flights by this aircraft type
Origin: KEND Vance AFB
United States
Destination: KEND Vance AFB
United States
More flights between these airports :: More routes between these airports
Route: +PNC/D0+15 F22/D0+15
File this flight plan on PilotEdge
Remarks:
Altitude:
(Current/Filed)
0ft
Speed:
(Current/Filed)
0kts
Departed: 15-Sep-20 06:49 AM
Arrived: 15-Sep-20 07:39 AM
Distance/Time
Traveled:
0nm/0:50
Distance/Time
To Go:
Arrived

Flight Plot

Page will automatically refresh every two minutes.

Flight plan parsing failed; only flown route is shown


Map Options




Map Legend


Flown Route
Filed Route
Departure Airport
Arrival Airport
Navaid (VOR, NDB)
Fix

Horizontal Profiles

Position Reports

Time Latitude Longitude Heading Altitude Ground
Speed
15-Sep-20 06:45 36.346975 -97.910200 219 1279ft 0kts
15-Sep-20 06:46 36.346975 -97.910200 219 1279ft 0kts
15-Sep-20 06:47 36.346719 -97.910967 218 1279ft 6kts
15-Sep-20 06:48 36.318437 -97.909426 174 1951ft 181kts
15-Sep-20 06:49 36.267787 -97.894983 91 4595ft 190kts
15-Sep-20 06:50 36.292650 -97.824024 66 4976ft 232kts
15-Sep-20 06:51 36.318711 -97.751550 67 5096ft 220kts
15-Sep-20 06:52 36.341648 -97.678830 65 5561ft 201kts
15-Sep-20 06:53 36.646891 -97.317664 38 5517ft 274kts
15-Sep-20 06:54 36.680433 -97.255444 77 5471ft 236kts
15-Sep-20 06:55 36.705074 -97.194052 58 5547ft 175kts
15-Sep-20 06:56 36.734171 -97.141074 10 4570ft 203kts
15-Sep-20 06:57 36.765280 -97.095080 134 4103ft 228kts
15-Sep-20 06:58 36.706326 -97.116549 182 2422ft 244kts
15-Sep-20 06:59 36.698202 -97.098779 355 1763ft 224kts
15-Sep-20 07:00 36.760495 -97.099021 2 2084ft 204kts
15-Sep-20 07:01 36.740099 -97.111937 186 2491ft 136kts
15-Sep-20 07:02 36.706347 -97.109762 106 1961ft 135kts
15-Sep-20 07:03 36.738991 -97.099548 358 1385ft 159kts
15-Sep-20 07:04 36.759044 -97.128019 188 2434ft 186kts
15-Sep-20 07:05 36.714690 -97.126619 180 2138ft 165kts
15-Sep-20 07:06 36.712336 -97.099980 4 2143ft 215kts
15-Sep-20 07:07 36.713096 -97.108999 152 1806ft 129kts
15-Sep-20 07:08 36.744425 -97.099087 1 1553ft 174kts
15-Sep-20 07:09 36.795242 -97.095272 2 4722ft 183kts
15-Sep-20 07:10 36.787533 -97.109857 179 5729ft 215kts
15-Sep-20 07:11 36.482859 -97.234181 182 5521ft 190kts
15-Sep-20 07:13 36.430110 -97.230837 178 5586ft 191kts
15-Sep-20 07:14 36.371528 -97.237478 194 3123ft 219kts
15-Sep-20 07:15 36.356105 -97.278409 7 1450ft 174kts
15-Sep-20 07:16 36.392980 -97.277404 355 1249ft 155kts
15-Sep-20 07:17 36.403989 -97.278632 350 1678ft 183kts
15-Sep-20 07:18 36.457914 -97.275604 358 3443ft 205kts
15-Sep-20 07:19 36.499082 -97.282827 204 2967ft 172kts
15-Sep-20 07:20 36.450131 -97.286646 183 3386ft 182kts
15-Sep-20 07:21 36.398256 -97.284623 178 3951ft 185kts
15-Sep-20 07:22 36.343104 -97.277835 181 3483ft 200kts
15-Sep-20 07:23 36.290032 -97.270725 182 3486ft 182kts
15-Sep-20 07:24 36.278426 -97.207149 126 3709ft 215kts
15-Sep-20 07:25 36.278968 -97.263179 278 5647ft 206kts
15-Sep-20 07:26 36.291013 -97.348400 281 6078ft 262kts
15-Sep-20 07:27 36.306931 -97.439918 279 6027ft 233kts
15-Sep-20 07:28 36.320451 -97.518733 284 5971ft 217kts
15-Sep-20 07:28 36.333786 -97.584129 284 5975ft 244kts
15-Sep-20 07:30 36.355851 -97.685240 284 5993ft 251kts
15-Sep-20 07:31 36.372214 -97.766490 290 5983ft 214kts
15-Sep-20 07:31 36.420533 -97.791899 347 5131ft 238kts
15-Sep-20 07:33 36.499636 -97.813095 311 2634ft 271kts
15-Sep-20 07:34 36.483613 -97.879775 223 2336ft 204kts
15-Sep-20 07:34 36.445464 -97.907193 179 2208ft 205kts
15-Sep-20 07:35 36.387060 -97.908594 188 2254ft 204kts
15-Sep-20 07:36 36.339421 -97.902830 70 2145ft 165kts
15-Sep-20 07:37 36.354697 -97.910557 190 1357ft 121kts
15-Sep-20 07:38 36.333704 -97.910785 138 1291ft 6kts
15-Sep-20 07:39 36.333573 -97.910334 73 1291ft 0kts
15-Sep-20 07:40 36.333573 -97.910334 73 1291ft 0kts
15-Sep-20 07:41 36.333573 -97.910334 73 1291ft 0kts
15-Sep-20 07:42 36.333573 -97.910334 73 1291ft 0kts

Navigation Log

Ident Type
Flight plan parsing failed, navigation log unavailable